Time;durP1;ratioP1;P1;durP2;ratioP2;P2;SDS_P1;SDS_P2;PMS_P1;PMS_P2;Temp;Humidity;BMP_temperature;BMP_pressure;BME280_temperature;BME280_humidity;BME280_pressure;Samples;Min_cycle;Max_cycle;Signal;HPM_P1;HPM_P2
2022/06/18 00:00:19;;;;;;;4.12;1.40;;;;;;;16.15;61.05;99417.66;4484353;32;20146;-71
2022/06/18 00:02:46;;;;;;;2.37;1.30;;;;;;;16.09;60.82;99415.63;4485700;32;20108;-71
2022/06/18 00:05:17;;;;;;;2.10;1.25;;;;;;;16.12;60.55;99415.31;4485502;32;20104;-71
2022/06/18 00:07:47;;;;;;;1.67;1.50;;;;;;;16.12;61.01;99416.19;4485716;31;20497;-71
2022/06/18 00:10:18;;;;;;;2.40;1.67;;;;;;;16.01;61.26;99416.44;4485659;32;20104;-71
2022/06/18 00:15:34;;;;;;;3.33;1.30;;;;;;;15.76;62.55;99423.31;4485767;32;20080;-71
2022/06/18 00:18:02;;;;;;;3.37;1.98;;;;;;;15.56;63.18;99420.91;4485355;32;20104;-71
2022/06/18 00:20:33;;;;;;;2.92;1.55;;;;;;;15.52;63.45;99408.13;4485526;31;20101;-71
2022/06/18 00:23:01;;;;;;;3.15;1.40;;;;;;;15.65;62.80;99420.94;4485753;31;20631;-71
2022/06/18 00:25:32;;;;;;;3.37;1.70;;;;;;;15.71;62.82;99426.44;4485278;31;20097;-71
2022/06/18 00:28:00;;;;;;;1.73;1.62;;;;;;;15.61;63.02;99413.31;4484230;32;20084;-71
2022/06/18 00:30:29;;;;;;;2.78;1.77;;;;;;;15.60;63.26;99426.69;4485342;31;20115;-71
2022/06/18 00:32:57;;;;;;;1.83;1.70;;;;;;;15.53;63.89;99423.00;4485339;31;20092;-71
2022/06/18 00:35:24;;;;;;;2.22;1.50;;;;;;;15.53;63.89;99412.44;4485408;31;20088;-71
2022/06/18 00:37:55;;;;;;;3.33;1.58;;;;;;;15.53;64.01;99418.53;4485433;32;20093;-71
2022/06/18 00:40:30;;;;;;;5.00;1.60;;;;;;;15.48;64.54;99420.00;4484219;32;20169;-71
2022/06/18 00:42:59;;;;;;;1.73;1.55;;;;;;;15.46;64.38;99422.78;4485749;31;20114;-71
2022/06/18 00:45:28;;;;;;;6.10;1.87;;;;;;;15.34;65.00;99414.25;4484131;32;20147;-71
2022/06/18 00:47:55;;;;;;;4.18;1.85;;;;;;;15.39;64.86;99416.44;4485056;31;20093;-71
2022/06/18 00:50:25;;;;;;;2.25;1.60;;;;;;;15.35;65.12;99418.56;4485183;31;20131;-71
2022/06/18 00:53:01;;;;;;;2.92;1.80;;;;;;;15.47;64.40;99420.97;4485214;31;20908;-71
2022/06/18 00:55:37;;;;;;;4.15;1.75;;;;;;;15.49;64.09;99416.34;4484418;32;20434;-71
2022/06/18 00:58:22;;;;;;;2.12;1.83;;;;;;;15.48;64.32;99415.53;4484067;32;20085;-71
2022/06/18 01:00:51;;;;;;;3.12;1.65;;;;;;;15.51;64.36;99423.16;4484157;32;20134;-71
2022/06/18 01:03:38;;;;;;;1.87;1.60;;;;;;;15.47;64.37;99410.41;4485301;31;20567;-71
2022/06/18 01:06:22;;;;;;;2.95;1.80;;;;;;;15.47;64.39;99411.22;4485647;31;20084;-71
2022/06/18 01:09:01;;;;;;;2.10;1.83;;;;;;;15.49;64.38;99413.72;4483945;32;20097;-71
2022/06/18 01:11:32;;;;;;;3.28;2.10;;;;;;;15.53;64.36;99415.06;4485489;31;20141;-71
2022/06/18 01:14:01;;;;;;;2.47;2.00;;;;;;;15.58;64.34;99420.75;4484238;32;20127;-71
2022/06/18 01:16:29;;;;;;;2.72;1.80;;;;;;;15.53;64.70;99413.25;4485034;31;20092;-71
2022/06/18 01:18:56;;;;;;;4.15;1.80;;;;;;;15.55;64.78;99413.94;4484508;31;20166;-71
2022/06/18 01:21:29;;;;;;;2.90;2.00;;;;;;;15.54;65.51;99414.91;4485008;31;20119;-71
2022/06/18 01:24:07;;;;;;;2.85;1.85;;;;;;;15.41;65.86;99415.31;4485354;31;20438;-71
2022/06/18 01:26:35;;;;;;;3.22;1.70;;;;;;;15.50;65.62;99416.19;4485502;31;20091;-71
2022/06/18 01:29:03;;;;;;;2.95;1.75;;;;;;;15.55;65.49;99418.41;4483764;32;20159;-71
2022/06/18 01:31:31;;;;;;;2.35;1.67;;;;;;;15.58;66.02;99416.28;4485005;31;20110;-71
2022/06/18 01:33:59;;;;;;;3.47;1.90;;;;;;;15.58;65.34;99411.00;4484942;31;20515;-71
2022/06/18 01:36:30;;;;;;;5.07;2.55;;;;;;;15.62;64.45;99403.59;4484114;32;20080;-71
2022/06/18 01:38:57;;;;;;;2.37;1.58;;;;;;;15.72;63.95;99396.41;4485212;31;20088;-71
2022/06/18 01:41:49;;;;;;;2.47;2.10;;;;;;;15.88;63.15;99401.00;4484907;31;20525;-71
2022/06/18 01:44:26;;;;;;;4.30;1.77;;;;;;;15.96;62.79;99400.22;4484018;32;20156;-71
2022/06/18 01:46:58;;;;;;;4.47;1.80;;;;;;;15.98;62.96;99402.72;4485145;31;20084;-71
2022/06/18 01:49:30;;;;;;;3.47;1.60;;;;;;;15.98;62.45;99400.06;4484938;31;20143;-71
2022/06/18 01:52:01;;;;;;;2.17;1.80;;;;;;;16.04;62.05;99402.91;4483849;32;20104;-71
2022/06/18 01:54:32;;;;;;;1.85;1.70;;;;;;;16.13;63.48;99401.13;4485004;31;20512;-71
2022/06/18 01:57:04;;;;;;;2.53;1.62;;;;;;;16.05;63.31;99401.91;4484014;32;20110;-71
2022/06/18 01:59:35;;;;;;;2.87;1.70;;;;;;;16.05;62.56;99401.91;4483763;32;20100;-71
2022/06/18 02:02:03;;;;;;;1.73;1.50;;;;;;;16.06;62.00;99400.09;4483706;32;20164;-71
2022/06/18 02:04:33;;;;;;;1.87;1.60;;;;;;;16.01;62.21;99392.63;4484641;31;20580;-71
2022/06/18 02:07:01;;;;;;;2.22;1.50;;;;;;;15.94;62.54;99399.53;4484799;31;20138;-71
2022/06/18 02:10:00;;;;;;;3.00;1.45;;;;;;;16.02;62.64;99396.09;4484574;31;20089;-71
2022/06/18 02:12:33;;;;;;;5.97;1.70;;;;;;;16.06;62.06;99400.91;4483258;32;20165;-71
2022/06/18 02:15:05;;;;;;;2.07;1.43;;;;;;;15.99;62.55;99391.97;4484534;31;20442;-71
2022/06/18 02:17:32;;;;;;;2.22;1.73;;;;;;;15.95;62.65;99399.37;4483169;32;20168;-71
2022/06/18 02:20:21;;;;;;;2.17;1.83;;;;;;;15.84;63.14;99389.09;4483123;32;20127;-71
2022/06/18 02:22:52;;;;;;;3.50;1.45;;;;;;;15.79;63.10;99384.25;4483277;32;20104;-71
2022/06/18 02:25:21;;;;;;;2.12;1.60;;;;;;;15.82;63.08;99384.94;4484271;31;20080;-71
2022/06/18 02:27:51;;;;;;;3.08;1.52;;;;;;;15.78;63.27;99385.25;4483108;32;20106;-71
2022/06/18 02:30:23;;;;;;;3.80;1.75;;;;;;;15.75;63.49;99385.53;4485335;31;20510;-71
2022/06/18 02:33:01;;;;;;;3.80;1.85;;;;;;;15.71;63.89;99384.16;4486419;31;20100;-71
2022/06/18 02:35:32;;;;;;;2.60;1.95;;;;;;;15.74;63.64;99388.31;4485306;32;20156;-71
2022/06/18 02:38:00;;;;;;;4.97;2.15;;;;;;;15.70;64.01;99392.25;4486432;32;20137;-71
2022/06/18 02:40:30;;;;;;;3.78;1.80;;;;;;;15.68;63.69;99379.19;4486216;31;20104;-71
2022/06/18 02:42:59;;;;;;;4.35;1.62;;;;;;;15.73;63.27;99387.50;4486220;31;20092;-71
2022/06/18 02:45:29;;;;;;;2.83;1.70;;;;;;;15.74;63.38;99385.69;4484915;32;20145;-71
2022/06/18 02:47:59;;;;;;;1.77;1.60;;;;;;;15.75;63.10;99393.44;4485944;31;20107;-71
2022/06/18 02:50:31;;;;;;;3.95;1.77;;;;;;;15.81;62.88;99386.75;4486117;31;20180;-71
2022/06/18 02:53:01;;;;;;;2.50;1.73;;;;;;;15.82;63.00;99390.22;4486230;31;20116;-71
2022/06/18 02:55:46;;;;;;;4.25;1.62;;;;;;;15.78;63.04;99395.81;4486420;31;20151;-71
2022/06/18 02:58:22;;;;;;;2.42;1.83;;;;;;;15.71;63.37;99389.44;4486320;31;20141;-71
2022/06/18 03:00:56;;;;;;;2.50;1.70;;;;;;;15.74;63.25;99388.31;4486124;32;20123;-71
2022/06/18 03:03:28;;;;;;;3.08;1.62;;;;;;;15.77;63.36;99398.56;4486389;31;20532;-71
2022/06/18 03:05:55;;;;;;;2.45;1.65;;;;;;;15.76;63.57;99395.12;4486211;31;20092;-71
2022/06/18 03:08:24;;;;;;;6.32;2.05;;;;;;;15.75;63.69;99400.56;4486334;31;20084;-71
2022/06/18 03:13:39;;;;;;;3.65;1.92;;;;;;;15.65;64.01;99398.00;4486233;31;20579;-71
2022/06/18 03:16:08;;;;;;;4.57;1.85;;;;;;;15.67;63.98;99388.12;4486226;31;20529;-71
2022/06/18 03:18:37;;;;;;;3.35;1.70;;;;;;;15.75;63.78;99392.63;4486051;31;20100;-71
2022/06/18 03:21:26;;;;;;;4.05;2.08;;;;;;;15.84;63.30;99388.25;4486217;31;20096;-71
2022/06/18 03:23:53;;;;;;;2.17;1.67;;;;;;;15.86;63.26;99391.56;4484757;32;20096;-71
2022/06/18 03:26:21;;;;;;;3.10;1.80;;;;;;;15.92;63.22;99397.03;4486057;31;20096;-71
2022/06/18 03:28:49;;;;;;;2.75;1.87;;;;;;;15.99;63.42;99402.56;4486511;31;20149;-71
2022/06/18 03:31:16;;;;;;;2.25;2.00;;;;;;;16.01;62.70;99400.56;4485696;31;20642;-71
2022/06/18 03:33:44;;;;;;;2.62;2.20;;;;;;;16.24;62.59;99402.66;4484931;32;20468;-71
2022/06/18 03:36:12;;;;;;;4.47;2.10;;;;;;;16.32;62.01;99400.06;4485914;31;20092;-71
2022/06/18 03:38:40;;;;;;;3.62;2.30;;;;;;;16.44;61.69;99405.87;4484942;32;20084;-71
2022/06/18 03:41:09;;;;;;;6.93;1.98;;;;;;;16.54;61.52;99405.78;4485685;31;20116;-71
2022/06/18 03:43:37;;;;;;;3.37;1.90;;;;;;;16.77;60.76;99393.59;4484866;32;20165;-71
2022/06/18 03:46:08;;;;;;;3.50;2.00;;;;;;;16.83;60.07;99394.78;4485712;31;20080;-71
2022/06/18 03:48:41;;;;;;;4.22;1.73;;;;;;;17.08;60.00;99400.13;4485854;31;20068;-71
2022/06/18 03:51:09;;;;;;;;;;;;;;;17.13;60.01;99398.66;4486056;31;20543;-71
2022/06/18 03:53:37;;;;;;;2.87;1.70;;;;;;;17.24;59.59;99394.03;4486133;31;20035;-71
2022/06/18 03:56:05;;;;;;;3.50;1.50;;;;;;;17.21;59.72;99387.25;4486101;31;20566;-71
2022/06/18 03:58:34;;;;;;;2.55;1.77;;;;;;;17.09;60.37;99397.31;4485863;32;20085;-71
2022/06/18 04:01:02;;;;;;;3.78;1.75;;;;;;;17.00;60.82;99393.84;4486144;31;20163;-71
2022/06/18 04:03:30;;;;;;;4.32;2.03;;;;;;;17.09;60.86;99397.31;4485909;31;20100;-71
2022/06/18 04:05:58;;;;;;;4.62;1.83;;;;;;;17.00;62.13;99395.66;4485864;31;20167;-71
2022/06/18 04:08:25;;;;;;;2.90;1.73;;;;;;;16.98;62.39;99403.75;4485583;31;20141;-71
2022/06/18 04:10:52;;;;;;;5.05;1.83;;;;;;;17.03;62.84;99405.91;4485430;31;20447;-71
2022/06/18 04:13:20;;;;;;;2.22;1.75;;;;;;;17.05;62.50;99403.97;4485900;31;20104;-71
2022/06/18 04:15:47;;;;;;;2.15;1.60;;;;;;;17.26;62.13;99400.84;4485429;31;20104;-71
2022/06/18 04:18:16;;;;;;;4.70;1.95;;;;;;;17.39;61.70;99405.63;4485475;31;20842;-71
2022/06/18 04:20:44;;;;;;;2.65;1.52;;;;;;;17.50;61.88;99407.97;4485731;32;20162;-71
2022/06/18 04:23:15;;;;;;;2.20;1.80;;;;;;;17.54;62.08;99403.16;4485688;32;20120;-71
2022/06/18 04:25:43;;;;;;;4.82;1.90;;;;;;;17.39;63.78;99405.63;4485955;31;20103;-71
2022/06/18 04:28:12;;;;;;;3.42;1.90;;;;;;;17.37;63.92;99407.63;4485546;31;20092;-71
2022/06/18 04:30:40;;;;;;;2.87;1.87;;;;;;;17.52;62.32;99405.97;4485673;31;20436;-71
2022/06/18 04:33:08;;;;;;;3.80;2.30;;;;;;;17.55;62.03;99416.22;4469971;32;20118;-71
2022/06/18 04:35:35;;;;;;;2.95;2.10;;;;;;;17.72;61.72;99411.72;4470081;32;20115;-71
2022/06/18 04:38:03;;;;;;;3.45;1.70;;;;;;;18.15;61.40;99419.47;4469912;32;20109;-71
2022/06/18 04:40:32;;;;;;;5.75;2.20;;;;;;;18.31;60.79;99407.16;4469837;32;20553;-71
2022/06/18 04:43:20;;;;;;;3.42;2.10;;;;;;;18.45;60.76;99422.34;4469759;32;20085;-71
2022/06/18 04:45:48;;;;;;;4.47;2.58;;;;;;;18.68;60.43;99424.25;4469897;32;20126;-71
2022/06/18 04:48:15;;;;;;;2.67;2.10;;;;;;;19.04;60.49;99426.41;4469632;32;20153;-71
2022/06/18 04:50:42;;;;;;;3.12;2.28;;;;;;;19.31;60.59;99420.56;4469812;32;20188;-71
2022/06/18 04:53:11;;;;;;;4.78;2.40;;;;;;;19.89;59.57;99428.06;4468779;32;20141;-71
2022/06/18 04:55:39;;;;;;;2.87;2.40;;;;;;;20.01;57.97;99429.25;4469769;32;20092;-71
2022/06/18 04:58:06;;;;;;;4.82;2.50;;;;;;;20.11;56.41;99431.69;4469500;32;20124;-71
2022/06/18 05:00:37;;;;;;;3.05;2.33;;;;;;;20.14;56.03;99433.97;4469969;32;20504;-71
2022/06/18 05:03:05;;;;;;;2.87;2.33;;;;;;;20.23;56.61;99436.53;4469796;32;20153;-71
2022/06/18 05:05:33;;;;;;;3.62;2.60;;;;;;;20.17;56.54;99432.78;4469440;32;20118;-71
2022/06/18 05:08:01;;;;;;;5.90;2.70;;;;;;;20.15;56.27;99440.09;4469873;32;20089;-71
2022/06/18 05:10:29;;;;;;;2.92;2.47;;;;;;;20.21;57.00;99440.22;4469590;32;20162;-71
2022/06/18 05:12:56;;;;;;;3.67;2.67;;;;;;;20.17;57.36;99443.44;4469615;32;20572;-71
2022/06/18 05:15:24;;;;;;;3.28;2.47;;;;;;;20.17;55.74;99448.75;4469527;32;20104;-71
2022/06/18 05:17:52;;;;;;;3.70;2.60;;;;;;;20.51;55.00;99445.50;4455111;32;20515;-71
2022/06/18 05:20:21;;;;;;;3.92;2.78;;;;;;;20.77;53.07;99443.41;4469579;32;20174;-71
2022/06/18 05:22:50;;;;;;;5.25;2.70;;;;;;;21.18;51.08;99450.81;4469790;32;20085;-71
2022/06/18 05:25:18;;;;;;;3.72;2.33;;;;;;;21.58;50.04;99441.41;4469709;32;20104;-71
2022/06/18 05:27:46;;;;;;;3.87;2.42;;;;;;;21.73;49.58;99451.16;4469352;32;20088;-71
2022/06/18 05:30:18;;;;;;;3.70;2.33;;;;;;;21.62;50.11;99455.19;4469434;32;20473;-71
2022/06/18 05:32:45;;;;;;;5.62;2.70;;;;;;;21.75;49.83;99462.47;4482946;32;20155;-71
2022/06/18 05:35:14;;;;;;;3.40;2.37;;;;;;;21.74;49.79;99461.66;4485149;31;20119;-71
2022/06/18 05:37:41;;;;;;;4.57;2.58;;;;;;;21.72;48.80;99466.31;4485077;32;20118;-71
2022/06/18 05:40:10;;;;;;;3.03;2.50;;;;;;;21.85;48.85;99459.44;4485130;31;20104;-72
2022/06/18 05:42:38;;;;;;;4.62;2.30;;;;;;;21.83;48.05;99459.63;4483632;32;20108;-71
2022/06/18 05:45:06;;;;;;;2.97;2.40;;;;;;;22.14;48.14;99467.25;4483759;32;20096;-71
2022/06/18 05:47:33;;;;;;;5.70;2.85;;;;;;;22.60;46.91;99468.56;4484561;31;20092;-71
2022/06/18 05:50:01;;;;;;;7.03;2.42;;;;;;;22.73;45.77;99470.47;4484970;31;20500;-71
2022/06/18 05:52:30;;;;;;;6.28;2.80;;;;;;;22.42;45.01;99469.13;4484983;31;20089;-72
2022/06/18 05:55:01;;;;;;;2.70;2.40;;;;;;;22.49;45.55;99469.13;4484803;31;20115;-71
2022/06/18 05:57:28;;;;;;;5.80;2.70;;;;;;;22.83;46.38;99470.94;4485146;31;20101;-71
2022/06/18 05:59:56;;;;;;;4.20;2.45;;;;;;;23.09;44.01;99474.75;4484853;31;20096;-71
2022/06/18 06:02:24;;;;;;;7.93;2.42;;;;;;;23.32;44.75;99473.59;4484822;32;20500;-72
2022/06/18 06:04:51;;;;;;;3.42;2.40;;;;;;;23.42;44.65;99473.97;4484669;31;20088;-71
2022/06/18 06:07:22;;;;;;;3.17;2.47;;;;;;;23.26;43.87;99479.75;4484669;31;20106;-71
2022/06/18 06:12:42;;;;;;;3.12;2.62;;;;;;;23.43;44.44;99480.19;4466616;32;20097;-71
2022/06/18 06:15:10;;;;;;;5.10;2.50;;;;;;;23.42;44.32;99476.66;4466265;32;20114;-72
2022/06/18 06:17:37;;;;;;;4.93;2.30;;;;;;;23.43;42.59;99470.28;4466496;32;20883;-72
2022/06/18 06:20:08;;;;;;;3.97;2.10;;;;;;;23.29;43.17;99471.31;4466261;32;20304;-71
2022/06/18 06:22:35;;;;;;;3.78;2.30;;;;;;;23.15;42.82;99473.94;4466276;32;20766;-71
2022/06/18 06:25:03;;;;;;;2.55;2.25;;;;;;;22.78;43.44;99472.56;4466195;32;20257;-71
2022/06/18 06:27:30;;;;;;;6.70;2.37;;;;;;;22.74;43.09;99473.97;4466142;32;20084;-71
2022/06/18 06:29:57;;;;;;;3.10;1.87;;;;;;;23.12;44.03;99484.22;4466080;32;20112;-71
2022/06/18 06:32:24;;;;;;;2.47;2.10;;;;;;;22.96;44.21;99482.69;4431064;32;20125;-71
2022/06/18 06:34:52;;;;;;;4.15;2.03;;;;;;;22.89;44.76;99481.84;4435109;32;20181;-71
2022/06/18 06:37:19;;;;;;;2.42;1.75;;;;;;;23.12;44.43;99479.69;4435065;32;20098;-71
2022/06/18 06:39:47;;;;;;;6.22;2.22;;;;;;;23.36;46.73;99486.34;4434959;32;20098;-71
2022/06/18 06:42:15;;;;;;;2.95;2.10;;;;;;;23.18;46.40;99494.94;4435046;32;20558;-71
2022/06/18 06:44:42;;;;;;;5.12;2.10;;;;;;;23.20;44.47;99490.19;4435181;32;20109;-71
2022/06/18 06:47:10;;;;;;;2.60;2.15;;;;;;;23.25;44.78;99489.59;4434867;32;20085;-71
2022/06/18 06:49:37;;;;;;;3.33;2.10;;;;;;;23.03;45.46;99494.25;4449199;32;20230;-71
2022/06/18 06:52:04;;;;;;;3.12;2.55;;;;;;;23.10;46.15;99492.41;4468454;32;20473;-71
2022/06/18 06:54:31;;;;;;;8.98;2.50;;;;;;;23.14;45.70;99493.69;4468395;32;20097;-71
2022/06/18 06:59:45;;;;;;;4.47;2.10;;;;;;;22.68;46.89;99483.63;4468378;32;20097;-71
2022/06/18 07:02:18;;;;;;;3.33;2.15;;;;;;;22.65;43.41;99484.00;4468220;32;20089;-71
2022/06/18 07:04:46;;;;;;;4.28;2.20;;;;;;;22.85;44.74;99484.91;4467007;32;20151;-71
2022/06/18 07:07:14;;;;;;;5.65;2.10;;;;;;;22.79;46.50;99488.38;4468422;32;20097;-71
2022/06/18 07:09:42;;;;;;;2.10;1.67;;;;;;;22.37;46.79;99489.41;4468044;32;20093;-71
2022/06/18 07:12:09;;;;;;;2.47;1.90;;;;;;;22.13;46.14;99483.47;4467982;32;20089;-71
2022/06/18 07:14:37;;;;;;;2.50;2.10;;;;;;;22.05;46.09;99483.63;4468106;32;20174;-71
2022/06/18 07:17:04;;;;;;;7.87;2.30;;;;;;;22.15;45.80;99490.25;4470050;32;20118;-71
2022/06/18 07:19:32;;;;;;;2.75;2.03;;;;;;;22.33;46.38;99481.78;4470127;32;20521;-71
2022/06/18 07:21:59;;;;;;;2.72;1.92;;;;;;;22.22;46.25;99478.81;4470574;32;20089;-71
2022/06/18 07:24:26;;;;;;;4.87;1.75;;;;;;;22.36;45.98;99485.91;4470056;32;20093;-71
2022/06/18 07:26:53;;;;;;;2.20;1.90;;;;;;;22.55;47.19;99483.56;4470273;32;20458;-71
2022/06/18 07:29:21;;;;;;;8.63;3.25;;;;;;;22.21;46.65;99483.34;4470303;32;20101;-71
2022/06/18 07:31:49;;;;;;;2.67;2.08;;;;;;;22.41;47.00;99486.16;4477563;32;20100;-71
2022/06/18 07:34:16;;;;;;;2.40;1.85;;;;;;;22.42;47.04;99484.28;4485788;31;20118;-71
2022/06/18 07:36:44;;;;;;;5.53;2.30;;;;;;;22.51;48.00;99488.44;4485861;31;20092;-71
2022/06/18 07:39:11;;;;;;;4.30;2.00;;;;;;;22.61;47.79;99488.09;4485767;31;20096;-71
2022/06/18 07:41:44;;;;;;;3.28;2.15;;;;;;;22.67;48.27;99485.44;4485935;31;20551;-71
2022/06/18 07:44:12;;;;;;;6.57;2.33;;;;;;;22.73;48.15;99481.16;4485797;32;20177;-71
2022/06/18 07:46:40;;;;;;;3.12;2.12;;;;;;;22.73;47.61;99485.69;4485650;31;20080;-71
2022/06/18 07:49:07;;;;;;;3.35;1.98;;;;;;;22.69;47.16;99479.91;4485554;31;20100;-71
2022/06/18 07:51:35;;;;;;;4.60;2.20;;;;;;;22.91;49.30;99477.97;4485754;31;20153;-71
2022/06/18 07:54:02;;;;;;;3.75;2.00;;;;;;;23.07;46.93;99481.28;4485754;31;20088;-71
2022/06/18 07:56:30;;;;;;;5.90;2.05;;;;;;;23.07;47.64;99487.44;4485548;31;20119;-71
2022/06/18 07:58:59;;;;;;;2.72;2.15;;;;;;;22.98;46.58;99473.47;4485572;31;20602;-71
2022/06/18 08:01:26;;;;;;;3.10;2.33;;;;;;;22.91;45.72;99482.47;4485569;31;20131;-71
2022/06/18 08:03:53;;;;;;;3.72;1.95;;;;;;;22.91;44.88;99469.09;4485684;31;20105;-71
2022/06/18 08:06:21;;;;;;;4.28;2.30;;;;;;;22.92;46.08;99476.94;4485702;31;20156;-71
2022/06/18 08:08:48;;;;;;;5.43;2.15;;;;;;;23.37;46.57;99471.09;4485599;31;20092;-71
2022/06/18 08:11:17;;;;;;;3.30;1.83;;;;;;;23.26;44.08;99472.53;4485567;31;20108;-71
2022/06/18 08:13:45;;;;;;;2.50;1.80;;;;;;;23.03;43.72;99476.34;4484768;32;20093;-71
2022/06/18 08:16:14;;;;;;;2.10;1.77;;;;;;;23.21;45.47;99472.31;4485406;31;20450;-71
2022/06/18 08:18:42;;;;;;;2.35;1.80;;;;;;;23.12;44.49;99473.50;4485514;31;20088;-71
2022/06/18 08:21:10;;;;;;;3.17;2.35;;;;;;;23.19;42.64;99464.50;4485497;31;20084;-71
2022/06/18 08:23:37;;;;;;;3.17;1.95;;;;;;;23.24;43.98;99463.91;4485269;32;20088;-71
2022/06/18 08:26:06;;;;;;;2.50;1.55;;;;;;;23.35;44.90;99454.47;4484276;32;20153;-71
2022/06/18 08:28:35;;;;;;;5.03;2.30;;;;;;;23.23;44.01;99456.09;4485342;31;20118;-71
2022/06/18 08:31:03;;;;;;;2.35;1.75;;;;;;;23.29;44.28;99461.44;4485393;31;20112;-71
2022/06/18 08:33:31;;;;;;;4.75;2.00;;;;;;;23.36;43.65;99456.09;4484407;32;20115;-71
2022/06/18 08:36:00;;;;;;;1.62;1.50;;;;;;;23.28;44.33;99449.09;4485503;31;20089;-71
2022/06/18 08:38:28;;;;;;;3.40;1.87;;;;;;;23.21;42.19;99461.63;4484412;32;20104;-71
2022/06/18 08:41:07;;;;;;;3.12;1.92;;;;;;;23.33;42.42;99470.69;4485382;31;20449;-71
2022/06/18 08:43:45;;;;;;;2.65;1.70;;;;;;;23.43;43.21;99448.09;4485522;31;20107;-71
2022/06/18 08:46:31;;;;;;;3.42;1.65;;;;;;;23.51;42.77;99443.38;4485291;32;20146;-71
2022/06/18 08:49:22;;;;;;;3.30;1.55;;;;;;;23.59;40.55;99442.34;4485223;31;20084;-71
2022/06/18 08:52:14;;;;;;;2.08;1.50;;;;;;;23.71;41.43;99445.22;4485337;31;20147;-71
2022/06/18 08:55:06;;;;;;;2.22;1.50;;;;;;;23.66;42.56;99448.50;4485547;32;20107;-71
2022/06/18 08:57:39;;;;;;;4.80;1.37;;;;;;;23.73;40.50;99443.16;4485299;32;20111;-71
2022/06/18 09:00:25;;;;;;;2.00;1.48;;;;;;;23.61;40.28;99444.81;4484278;32;20096;-71
2022/06/18 09:03:07;;;;;;;2.30;1.40;;;;;;;23.69;40.08;99436.56;4485267;31;20130;-71
2022/06/18 09:06:11;;;;;;;3.50;1.60;;;;;;;23.85;39.44;99441.53;4484177;32;20537;-71
2022/06/18 09:09:00;;;;;;;4.45;1.85;;;;;;;23.87;40.28;99439.47;4485327;31;20095;-71
2022/06/18 09:11:37;;;;;;;3.65;1.60;;;;;;;24.02;40.22;99443.78;4485224;31;20080;-71
2022/06/18 09:14:09;;;;;;;5.28;1.70;;;;;;;24.60;41.71;99435.00;4485412;31;20442;-71
2022/06/18 09:16:41;;;;;;;1.92;1.67;;;;;;;24.39;41.07;99446.78;4482466;31;79777;-71
2022/06/18 09:19:13;;;;;;;3.08;1.80;;;;;;;24.01;42.43;99434.94;4483823;32;20084;-71
2022/06/18 09:21:47;;;;;;;3.05;1.60;;;;;;;24.16;41.57;99437.34;4483970;32;20100;-71
2022/06/18 09:24:16;;;;;;;;;;;;;;;24.07;41.69;99431.44;4484262;32;20122;-71
2022/06/18 09:26:48;;;;;;;8.77;1.65;;;;;;;24.18;41.83;99419.25;4484034;32;19990;-71
2022/06/18 09:29:21;;;;;;;1.70;1.60;;;;;;;24.36;41.95;99423.94;4483892;32;20118;-71
2022/06/18 09:31:58;;;;;;;3.90;1.62;;;;;;;24.72;42.50;99432.47;4476541;32;20109;-71
2022/06/18 09:34:30;;;;;;;3.78;1.52;;;;;;;24.62;42.22;99422.22;4468183;32;20162;-71
2022/06/18 09:37:02;;;;;;;3.75;1.02;;;;;;;24.60;42.87;99430.47;4468121;32;20188;-71
2022/06/18 09:39:35;;;;;;;1.43;1.30;;;;;;;24.70;38.39;99423.84;4467402;32;20466;-71
2022/06/18 09:42:02;;;;;;;2.03;1.80;;;;;;;24.95;40.04;99422.06;4468113;32;20105;-71
2022/06/18 09:44:49;;;;;;;2.90;1.23;;;;;;;24.73;38.05;99423.41;4469497;32;20150;-71
2022/06/18 09:47:22;;;;;;;2.10;1.10;;;;;;;24.85;39.33;99419.00;4469573;32;20147;-71
2022/06/18 09:49:49;;;;;;;2.45;2.00;;;;;;;24.70;38.55;99416.59;4469429;32;20212;-71
2022/06/18 09:52:33;;;;;;;1.58;1.10;;;;;;;24.49;38.99;99422.25;4469230;32;20468;-71
2022/06/18 09:55:06;;;;;;;1.87;1.10;;;;;;;24.78;38.07;99421.75;4469334;32;20430;-71
2022/06/18 09:57:36;;;;;;;1.87;1.20;;;;;;;24.85;37.51;99412.84;4468012;32;20093;-71
2022/06/18 10:00:11;;;;;;;2.45;1.20;;;;;;;24.89;37.92;99409.50;4467822;32;20223;-71
2022/06/18 10:02:59;;;;;;;1.80;1.58;;;;;;;25.03;38.08;99409.44;4469063;32;20443;-71
2022/06/18 10:08:26;;;;;;;2.58;1.35;;;;;;;24.80;39.61;99408.94;4467898;32;20093;-71
2022/06/18 10:11:07;;;;;;;7.15;1.42;;;;;;;24.70;39.98;99405.87;4467635;32;20088;-71
2022/06/18 10:13:42;;;;;;;6.90;1.75;;;;;;;25.03;40.02;99396.03;4467890;32;20097;-71
2022/06/18 10:16:21;;;;;;;3.75;1.50;;;;;;;24.71;41.12;99399.50;4467696;32;20222;-71
2022/06/18 10:19:02;;;;;;;3.33;1.65;;;;;;;24.93;39.58;99391.13;4467473;32;20080;-71
2022/06/18 10:21:38;;;;;;;2.35;1.50;;;;;;;25.23;39.39;99388.66;4467681;32;20702;-71
2022/06/18 10:24:15;;;;;;;2.47;1.30;;;;;;;25.30;38.96;99386.78;4467708;32;20465;-71
2022/06/18 10:26:49;;;;;;;2.40;1.33;;;;;;;25.29;38.48;99379.78;4468899;32;20109;-71
2022/06/18 10:29:36;;;;;;;3.60;1.40;;;;;;;25.01;38.07;99376.66;4467534;32;20119;-71
2022/06/18 10:32:11;;;;;;;5.25;1.40;;;;;;;25.23;39.17;99375.25;4476040;32;20080;-71
2022/06/18 10:34:48;;;;;;;2.17;1.15;;;;;;;25.22;37.02;99365.53;4483153;32;20513;-71
2022/06/18 10:37:22;;;;;;;1.37;1.20;;;;;;;25.62;37.01;99364.44;4482997;32;20413;-71
2022/06/18 10:40:14;;;;;;;2.97;1.45;;;;;;;25.28;37.12;99375.41;4484298;31;20404;-71
2022/06/18 10:43:18;;;;;;;1.85;1.42;;;;;;;24.83;36.62;99375.53;4484217;31;20378;-71
2022/06/18 10:45:52;;;;;;;2.25;1.73;;;;;;;25.24;35.95;99363.50;4484276;31;20522;-71
2022/06/18 10:48:26;;;;;;;4.10;1.40;;;;;;;25.66;35.82;99366.47;4483874;31;20084;-71
2022/06/18 10:50:56;;;;;;;3.42;1.05;;;;;;;25.30;37.64;99365.31;4484071;32;20450;-71
2022/06/18 10:53:27;;;;;;;1.37;1.05;;;;;;;25.39;36.35;99365.03;4486140;31;20076;-71
2022/06/18 10:56:03;;;;;;;1.75;1.30;;;;;;;25.40;36.35;99364.00;4486341;31;20485;-71
2022/06/18 10:58:30;;;;;;;1.85;1.50;;;;;;;25.44;36.89;99370.59;4486264;31;20185;-71
2022/06/18 11:01:14;;;;;;;2.45;1.20;;;;;;;25.39;36.70;99362.34;4486383;32;20097;-71
2022/06/18 11:03:52;;;;;;;2.50;1.12;;;;;;;25.84;37.76;99360.31;4484843;32;20110;-71
2022/06/18 11:06:22;;;;;;;3.05;1.35;;;;;;;25.93;36.70;99363.50;4486250;32;20153;-71
2022/06/18 11:08:53;;;;;;;1.52;1.15;;;;;;;25.99;36.94;99359.13;4485035;32;20158;-71
2022/06/18 11:11:24;;;;;;;1.62;1.12;;;;;;;26.15;35.69;99357.72;4486010;31;20088;-71
2022/06/18 11:13:52;;;;;;;3.30;1.27;;;;;;;25.90;35.25;99349.69;4486212;31;20482;-71
2022/06/18 11:16:25;;;;;;;4.12;1.35;;;;;;;25.54;36.46;99345.94;4486053;31;20122;-71
2022/06/18 11:19:01;;;;;;;1.50;1.20;;;;;;;25.49;36.17;99354.63;4485864;31;20548;-71
2022/06/18 11:21:39;;;;;;;7.05;1.92;;;;;;;25.82;35.62;99342.75;4484714;32;20084;-71
2022/06/18 11:24:13;;;;;;;2.95;1.40;;;;;;;26.11;36.21;99335.03;4484569;32;20085;-71
2022/06/18 11:26:55;;;;;;;1.75;1.20;;;;;;;26.02;35.08;99337.19;4485987;31;20089;-71
2022/06/18 11:29:33;;;;;;;1.77;1.27;;;;;;;26.21;36.37;99332.66;4486312;31;20088;-71
2022/06/18 11:32:30;;;;;;;1.87;1.33;;;;;;;25.80;36.60;99331.41;4485785;31;20092;-71
2022/06/18 11:35:16;;;;;;;4.18;1.25;;;;;;;26.10;35.54;99328.03;4452163;32;20109;-71
2022/06/18 11:37:43;;;;;;;1.33;1.23;;;;;;;26.17;34.45;99326.09;4439511;32;20097;-71
2022/06/18 11:40:10;;;;;;;2.47;1.20;;;;;;;26.15;34.69;99314.75;4452130;32;20124;-71
2022/06/18 11:42:44;;;;;;;2.72;1.08;;;;;;;26.44;33.16;99307.75;4452162;32;20097;-71
2022/06/18 11:45:42;;;;;;;1.62;1.10;;;;;;;26.72;34.04;99304.50;4439415;32;20101;-71
2022/06/18 11:48:46;;;;;;;3.25;1.40;;;;;;;26.88;33.73;99312.94;4439228;32;20159;-71
2022/06/18 11:51:13;;;;;;;1.98;1.33;;;;;;;26.32;33.95;99302.31;4439507;32;20162;-71
2022/06/18 11:54:10;;;;;;;1.48;1.37;;;;;;;26.68;34.57;99289.06;4451818;32;20527;-71
2022/06/18 11:56:48;;;;;;;2.25;1.33;;;;;;;27.03;32.37;99297.19;4452185;32;20113;-71
2022/06/18 11:59:27;;;;;;;1.62;1.15;;;;;;;26.73;34.64;99284.59;4439134;32;20139;-71
2022/06/18 12:01:58;;;;;;;2.15;1.15;;;;;;;26.78;33.79;99280.41;4452044;32;20092;-71
2022/06/18 12:05:25;;;;;;;2.78;1.10;;;;;;;27.19;34.89;99276.03;4439154;32;20173;-71
2022/06/18 12:07:57;;;;;;;3.53;2.35;;;;;;;27.20;32.88;99281.16;4404231;32;20086;-71
2022/06/18 12:11:11;;;;;;;2.67;1.00;;;;;;;27.01;33.22;99277.78;4406141;32;20106;-71